sensor_id;sensor_type;location;lat;lon;timestamp;pressure;altitude;pressure_sealevel;temperature;humidity
75146;BME280;63641;46.526;24.612;2024-02-23T00:02:06;96668.28;;;4.87;62.00
75146;BME280;63641;46.526;24.612;2024-02-23T00:04:33;96671.78;;;4.88;62.00
75146;BME280;63641;46.526;24.612;2024-02-23T00:07:00;96661.84;;;4.83;61.97
75146;BME280;63641;46.526;24.612;2024-02-23T00:09:29;96651.09;;;4.78;62.04
75146;BME280;63641;46.526;24.612;2024-02-23T00:11:56;96642.56;;;4.86;61.67
75146;BME280;63641;46.526;24.612;2024-02-23T00:14:23;96642.56;;;4.86;61.82
75146;BME280;63641;46.526;24.612;2024-02-23T00:16:50;96629.41;;;4.84;61.62
75146;BME280;63641;46.526;24.612;2024-02-23T00:19:17;96619.53;;;4.90;61.55
75146;BME280;63641;46.526;24.612;2024-02-23T00:21:47;96613.91;;;4.92;61.50
75146;BME280;63641;46.526;24.612;2024-02-23T00:24:16;96645.84;;;5.03;61.38
75146;BME280;63641;46.526;24.612;2024-02-23T00:26:43;96634.88;;;5.05;61.29
75146;BME280;63641;46.526;24.612;2024-02-23T00:29:11;96641.84;;;5.06;61.32
75146;BME280;63641;46.526;24.612;2024-02-23T00:31:38;96637.25;;;5.01;61.48
75146;BME280;63641;46.526;24.612;2024-02-23T00:34:07;96636.72;;;4.99;61.76
75146;BME280;63641;46.526;24.612;2024-02-23T00:36:40;96630.53;;;4.99;61.92
75146;BME280;63641;46.526;24.612;2024-02-23T00:39:07;96619.53;;;4.95;61.54
75146;BME280;63641;46.526;24.612;2024-02-23T00:41:35;96628.69;;;5.04;61.54
75146;BME280;63641;46.526;24.612;2024-02-23T00:44:05;96616.34;;;5.03;61.69
75146;BME280;63641;46.526;24.612;2024-02-23T00:46:32;96616.34;;;5.03;61.54
75146;BME280;63641;46.526;24.612;2024-02-23T00:48:59;96615.81;;;5.06;61.78
75146;BME280;63641;46.526;24.612;2024-02-23T00:51:26;96618.22;;;5.08;61.99
75146;BME280;63641;46.526;24.612;2024-02-23T00:53:53;96621.19;;;5.06;61.83
75146;BME280;63641;46.526;24.612;2024-02-23T00:56:20;96612.06;;;5.02;62.06
75146;BME280;63641;46.526;24.612;2024-02-23T00:58:53;96614.75;;;5.02;62.10
75146;BME280;63641;46.526;24.612;2024-02-23T01:01:19;96623.59;;;5.03;62.13
75146;BME280;63641;46.526;24.612;2024-02-23T01:03:46;96622.78;;;5.02;62.30
75146;BME280;63641;46.526;24.612;2024-02-23T01:06:13;96618.78;;;5.05;62.15
75146;BME280;63641;46.526;24.612;2024-02-23T01:08:40;96607.50;;;5.03;61.99
75146;BME280;63641;46.526;24.612;2024-02-23T01:11:07;96609.38;;;5.07;61.87
75146;BME280;63641;46.526;24.612;2024-02-23T01:13:33;96621.19;;;5.12;61.89
75146;BME280;63641;46.526;24.612;2024-02-23T01:16:01;96604.06;;;5.13;62.05
75146;BME280;63641;46.526;24.612;2024-02-23T01:18:28;96600.25;;;5.03;61.86
75146;BME280;63641;46.526;24.612;2024-02-23T01:20:56;96620.94;;;5.18;61.84
75146;BME280;63641;46.526;24.612;2024-02-23T01:23:24;96602.97;;;5.19;61.71
75146;BME280;63641;46.526;24.612;2024-02-23T01:25:50;96618.56;;;5.27;61.61
75146;BME280;63641;46.526;24.612;2024-02-23T01:28:17;96618.56;;;5.32;61.41
75146;BME280;63641;46.526;24.612;2024-02-23T01:30:44;96616.69;;;5.32;61.42
75146;BME280;63641;46.526;24.612;2024-02-23T01:33:11;96606.25;;;5.36;61.21
75146;BME280;63641;46.526;24.612;2024-02-23T01:35:37;96613.50;;;5.41;60.97
75146;BME280;63641;46.526;24.612;2024-02-23T01:38:04;96608.41;;;5.44;60.88
75146;BME280;63641;46.526;24.612;2024-02-23T01:40:31;96610.03;;;5.50;60.88
75146;BME280;63641;46.526;24.612;2024-02-23T01:43:05;96601.69;;;5.52;60.98
75146;BME280;63641;46.526;24.612;2024-02-23T01:45:33;96607.63;;;5.54;60.58
75146;BME280;63641;46.526;24.612;2024-02-23T01:48:01;96608.41;;;5.54;60.77
75146;BME280;63641;46.526;24.612;2024-02-23T01:50:29;96607.91;;;5.57;60.74
75146;BME280;63641;46.526;24.612;2024-02-23T01:53:00;96599.84;;;5.57;60.62
75146;BME280;63641;46.526;24.612;2024-02-23T01:55:27;96595.56;;;5.56;60.57
75146;BME280;63641;46.526;24.612;2024-02-23T01:57:58;96600.13;;;5.56;60.74
75146;BME280;63641;46.526;24.612;2024-02-23T02:00:25;96605.72;;;5.60;60.63
75146;BME280;63641;46.526;24.612;2024-02-23T02:02:53;96600.13;;;5.61;60.60
75146;BME280;63641;46.526;24.612;2024-02-23T02:05:20;96593.16;;;5.60;60.17
75146;BME280;63641;46.526;24.612;2024-02-23T02:07:49;96600.91;;;5.62;60.29
75146;BME280;63641;46.526;24.612;2024-02-23T02:10:20;96605.75;;;5.65;60.48
75146;BME280;63641;46.526;24.612;2024-02-23T02:12:48;96595.53;;;5.67;60.11
75146;BME280;63641;46.526;24.612;2024-02-23T02:15:14;96610.88;;;5.71;60.04
75146;BME280;63641;46.526;24.612;2024-02-23T02:17:41;96595.53;;;5.67;60.11
75146;BME280;63641;46.526;24.612;2024-02-23T02:20:12;96598.25;;;5.72;60.12
75146;BME280;63641;46.526;24.612;2024-02-23T02:22:40;96597.16;;;5.73;59.80
75146;BME280;63641;46.526;24.612;2024-02-23T02:25:08;96596.63;;;5.76;59.84
75146;BME280;63641;46.526;24.612;2024-02-23T02:27:35;96598.78;;;5.79;59.66
75146;BME280;63641;46.526;24.612;2024-02-23T02:30:03;96605.22;;;5.78;59.74
75146;BME280;63641;46.526;24.612;2024-02-23T02:32:30;96587.78;;;5.75;59.74
75146;BME280;63641;46.526;24.612;2024-02-23T02:35:03;96595.81;;;5.80;59.78
75146;BME280;63641;46.526;24.612;2024-02-23T02:37:30;96596.63;;;5.81;59.71
75146;BME280;63641;46.526;24.612;2024-02-23T02:39:57;96599.59;;;5.79;59.68
75146;BME280;63641;46.526;24.612;2024-02-23T02:42:24;96591.00;;;5.82;59.91
75146;BME280;63641;46.526;24.612;2024-02-23T02:44:51;96597.44;;;5.81;59.80
75146;BME280;63641;46.526;24.612;2024-02-23T02:47:18;96595.56;;;5.82;59.79
75146;BME280;63641;46.526;24.612;2024-02-23T02:49:44;96598.25;;;5.82;59.81
75146;BME280;63641;46.526;24.612;2024-02-23T02:52:11;96596.63;;;5.76;59.94
75146;BME280;63641;46.526;24.612;2024-02-23T02:54:38;96586.69;;;5.76;59.69
75146;BME280;63641;46.526;24.612;2024-02-23T02:57:05;96603.09;;;5.80;59.96
75146;BME280;63641;46.526;24.612;2024-02-23T02:59:34;96608.97;;;5.77;60.11
75146;BME280;63641;46.526;24.612;2024-02-23T03:02:02;96593.97;;;5.71;60.28
75146;BME280;63641;46.526;24.612;2024-02-23T03:04:29;96605.50;;;5.71;60.55
75146;BME280;63641;46.526;24.612;2024-02-23T03:06:56;96599.88;;;5.68;60.53
75146;BME280;63641;46.526;24.612;2024-02-23T03:09:22;96604.69;;;5.66;60.65
75146;BME280;63641;46.526;24.612;2024-02-23T03:11:49;96600.63;;;5.63;60.77
75146;BME280;63641;46.526;24.612;2024-02-23T03:14:16;96600.38;;;5.60;60.88
75146;BME280;63641;46.526;24.612;2024-02-23T03:16:45;96604.69;;;5.61;61.19
75146;BME280;63641;46.526;24.612;2024-02-23T03:19:14;96596.09;;;5.53;61.25
75146;BME280;63641;46.526;24.612;2024-02-23T03:21:42;96598.22;;;5.51;61.30
75146;BME280;63641;46.526;24.612;2024-02-23T03:24:08;96601.44;;;5.48;61.66
75146;BME280;63641;46.526;24.612;2024-02-23T03:26:35;96605.22;;;5.52;61.61
75146;BME280;63641;46.526;24.612;2024-02-23T03:29:02;96592.56;;;5.48;61.74
75146;BME280;63641;46.526;24.612;2024-02-23T03:31:29;96587.50;;;5.46;62.04
75146;BME280;63641;46.526;24.612;2024-02-23T03:33:56;96591.25;;;5.45;61.94
75146;BME280;63641;46.526;24.612;2024-02-23T03:36:23;96583.44;;;5.44;61.98
75146;BME280;63641;46.526;24.612;2024-02-23T03:38:49;96596.06;;;5.43;61.99
75146;BME280;63641;46.526;24.612;2024-02-23T03:41:16;96595.00;;;5.39;62.00
75146;BME280;63641;46.526;24.612;2024-02-23T03:43:43;96593.38;;;5.43;61.93
75146;BME280;63641;46.526;24.612;2024-02-23T03:46:10;96579.41;;;5.41;61.67
75146;BME280;63641;46.526;24.612;2024-02-23T03:48:38;96584.25;;;5.44;61.67
75146;BME280;63641;46.526;24.612;2024-02-23T03:51:05;96588.81;;;5.44;61.89
75146;BME280;63641;46.526;24.612;2024-02-23T03:53:32;96578.91;;;5.39;62.06
75146;BME280;63641;46.526;24.612;2024-02-23T03:55:59;96567.09;;;5.40;61.83
75146;BME280;63641;46.526;24.612;2024-02-23T03:58:25;96572.47;;;5.45;61.76
75146;BME280;63641;46.526;24.612;2024-02-23T04:00:52;96562.81;;;5.49;61.65
75146;BME280;63641;46.526;24.612;2024-02-23T04:03:19;96573.53;;;5.54;61.58
75146;BME280;63641;46.526;24.612;2024-02-23T04:05:46;96563.06;;;5.58;61.29
75146;BME280;63641;46.526;24.612;2024-02-23T04:08:13;96572.47;;;5.61;61.45
75146;BME280;63641;46.526;24.612;2024-02-23T04:10:40;96575.69;;;5.63;61.24
75146;BME280;63641;46.526;24.612;2024-02-23T04:13:07;96573.28;;;5.61;61.35
75146;BME280;63641;46.526;24.612;2024-02-23T04:15:33;96564.44;;;5.61;61.64
75146;BME280;63641;46.526;24.612;2024-02-23T04:18:00;96566.31;;;5.60;61.59
75146;BME280;63641;46.526;24.612;2024-02-23T04:20:27;96563.63;;;5.60;61.77
75146;BME280;63641;46.526;24.612;2024-02-23T04:22:53;96573.00;;;5.63;61.84
75146;BME280;63641;46.526;24.612;2024-02-23T04:25:20;96571.94;;;5.64;61.64
75146;BME280;63641;46.526;24.612;2024-02-23T04:27:47;96559.06;;;5.61;61.73
75146;BME280;63641;46.526;24.612;2024-02-23T04:30:14;96556.66;;;5.64;61.80
75146;BME280;63641;46.526;24.612;2024-02-23T04:32:40;96569.25;;;5.69;61.54
75146;BME280;63641;46.526;24.612;2024-02-23T04:35:08;96557.44;;;5.70;61.32
75146;BME280;63641;46.526;24.612;2024-02-23T04:37:35;96555.56;;;5.75;61.36
75146;BME280;63641;46.526;24.612;2024-02-23T04:40:03;96560.94;;;5.75;61.06
75146;BME280;63641;46.526;24.612;2024-02-23T04:42:33;96570.06;;;5.79;61.06
75146;BME280;63641;46.526;24.612;2024-02-23T04:45:00;96571.41;;;5.82;60.85
75146;BME280;63641;46.526;24.612;2024-02-23T04:47:27;96569.00;;;5.86;60.76
75146;BME280;63641;46.526;24.612;2024-02-23T04:49:54;96571.41;;;5.87;60.96
75146;BME280;63641;46.526;24.612;2024-02-23T04:52:20;96585.38;;;5.89;60.80
75146;BME280;63641;46.526;24.612;2024-02-23T04:54:47;96570.88;;;5.90;60.65
75146;BME280;63641;46.526;24.612;2024-02-23T04:57:14;96575.16;;;5.91;60.72
75146;BME280;63641;46.526;24.612;2024-02-23T04:59:41;96579.22;;;5.94;60.82
75146;BME280;63641;46.526;24.612;2024-02-23T05:02:07;96567.91;;;5.87;60.81
75146;BME280;63641;46.526;24.612;2024-02-23T05:04:34;96567.63;;;5.88;60.86
75146;BME280;63641;46.526;24.612;2024-02-23T05:07:01;96575.72;;;5.93;61.01
75146;BME280;63641;46.526;24.612;2024-02-23T05:09:28;96584.84;;;5.92;61.26
75146;BME280;63641;46.526;24.612;2024-02-23T05:11:55;96579.47;;;5.92;61.16
75146;BME280;63641;46.526;24.612;2024-02-23T05:14:22;96585.38;;;5.89;61.18
75146;BME280;63641;46.526;24.612;2024-02-23T05:16:49;96580.53;;;5.91;61.13
75146;BME280;63641;46.526;24.612;2024-02-23T05:19:16;96582.16;;;5.92;61.10
75146;BME280;63641;46.526;24.612;2024-02-23T05:21:43;96591.56;;;5.95;61.19
75146;BME280;63641;46.526;24.612;2024-02-23T05:24:11;96594.25;;;5.95;61.25
75146;BME280;63641;46.526;24.612;2024-02-23T05:26:38;96595.34;;;5.94;61.08
75146;BME280;63641;46.526;24.612;2024-02-23T05:29:05;96596.66;;;5.96;61.35
75146;BME280;63641;46.526;24.612;2024-02-23T05:31:58;96598.28;;;5.97;61.13
75146;BME280;63641;46.526;24.612;2024-02-23T05:34:25;96603.66;;;5.97;61.38
75146;BME280;63641;46.526;24.612;2024-02-23T05:36:52;96605.25;;;5.98;61.38
75146;BME280;63641;46.526;24.612;2024-02-23T05:39:19;96607.16;;;5.98;61.34
75146;BME280;63641;46.526;24.612;2024-02-23T05:41:45;96621.09;;;6.00;61.36
75146;BME280;63641;46.526;24.612;2024-02-23T05:44:12;96617.59;;;5.99;61.62
75146;BME280;63641;46.526;24.612;2024-02-23T05:46:42;96623.53;;;6.01;61.66
75146;BME280;63641;46.526;24.612;2024-02-23T05:49:09;96627.00;;;6.02;61.36
75146;BME280;63641;46.526;24.612;2024-02-23T05:51:36;96629.97;;;6.05;61.50
75146;BME280;63641;46.526;24.612;2024-02-23T05:54:03;96630.25;;;6.04;61.60
75146;BME280;63641;46.526;24.612;2024-02-23T05:56:30;96618.16;;;6.01;61.50
75146;BME280;63641;46.526;24.612;2024-02-23T05:58:57;96625.69;;;6.04;61.56
75146;BME280;63641;46.526;24.612;2024-02-23T06:01:24;96618.66;;;6.03;61.55
75146;BME280;63641;46.526;24.612;2024-02-23T06:03:50;96626.75;;;6.09;61.53
75146;BME280;63641;46.526;24.612;2024-02-23T06:06:17;96639.91;;;6.15;61.27
75146;BME280;63641;46.526;24.612;2024-02-23T06:08:44;96640.19;;;6.19;61.15
75146;BME280;63641;46.526;24.612;2024-02-23T06:11:13;96645.53;;;6.29;61.24
75146;BME280;63641;46.526;24.612;2024-02-23T06:13:39;96633.44;;;6.32;61.00
75146;BME280;63641;46.526;24.612;2024-02-23T06:16:10;96632.06;;;6.39;60.96
75146;BME280;63641;46.526;24.612;2024-02-23T06:18:38;96632.09;;;6.44;60.70
75146;BME280;63641;46.526;24.612;2024-02-23T06:21:14;96647.38;;;6.59;60.40
75146;BME280;63641;46.526;24.612;2024-02-23T06:23:41;96639.28;;;6.64;60.38
75146;BME280;63641;46.526;24.612;2024-02-23T06:26:08;96646.00;;;6.72;60.10
75146;BME280;63641;46.526;24.612;2024-02-23T06:28:36;96651.59;;;6.81;60.07
75146;BME280;63641;46.526;24.612;2024-02-23T06:31:09;96651.59;;;6.91;60.11
75146;BME280;63641;46.526;24.612;2024-02-23T06:33:36;96631.66;;;6.97;59.87
75146;BME280;63641;46.526;24.612;2024-02-23T06:36:03;96648.31;;;7.04;59.86
75146;BME280;63641;46.526;24.612;2024-02-23T06:38:31;96640.47;;;7.13;59.42
75146;BME280;63641;46.526;24.612;2024-02-23T06:40:57;96647.97;;;7.21;59.35
75146;BME280;63641;46.526;24.612;2024-02-23T06:43:24;96645.28;;;7.26;59.38
75146;BME280;63641;46.526;24.612;2024-02-23T06:45:51;96640.91;;;7.35;59.30
75146;BME280;63641;46.526;24.612;2024-02-23T06:48:18;96643.56;;;7.45;59.18
75146;BME280;63641;46.526;24.612;2024-02-23T06:50:45;96644.81;;;7.58;58.63
75146;BME280;63641;46.526;24.612;2024-02-23T06:53:12;96628.63;;;7.63;58.50
75146;BME280;63641;46.526;24.612;2024-02-23T06:55:39;96642.00;;;7.79;58.14
75146;BME280;63641;46.526;24.612;2024-02-23T06:58:05;96648.63;;;7.91;57.92
75146;BME280;63641;46.526;24.612;2024-02-23T07:00:33;96655.84;;;8.01;57.25
75146;BME280;63641;46.526;24.612;2024-02-23T07:03:02;96652.28;;;8.11;57.64
75146;BME280;63641;46.526;24.612;2024-02-23T07:05:31;96656.22;;;8.23;57.43
75146;BME280;63641;46.526;24.612;2024-02-23T07:07:58;96669.31;;;8.35;57.04
75146;BME280;63641;46.526;24.612;2024-02-23T07:10:25;96657.44;;;8.41;56.95
75146;BME280;63641;46.526;24.612;2024-02-23T07:12:52;96663.84;;;8.51;56.75
75146;BME280;63641;46.526;24.612;2024-02-23T07:15:20;96665.38;;;8.57;56.27
75146;BME280;63641;46.526;24.612;2024-02-23T07:17:47;96661.81;;;8.61;56.14
75146;BME280;63641;46.526;24.612;2024-02-23T07:20:14;96657.72;;;8.69;55.97
75146;BME280;63641;46.526;24.612;2024-02-23T07:22:44;96664.38;;;8.77;55.54
75146;BME280;63641;46.526;24.612;2024-02-23T07:25:11;96658.13;;;8.81;55.58
75146;BME280;63641;46.526;24.612;2024-02-23T07:27:38;96663.47;;;8.86;55.26
75146;BME280;63641;46.526;24.612;2024-02-23T07:30:05;96663.13;;;8.93;54.99
75146;BME280;63641;46.526;24.612;2024-02-23T07:32:33;96662.00;;;8.99;54.76
75146;BME280;63641;46.526;24.612;2024-02-23T07:35:00;96647.94;;;9.02;54.42
75146;BME280;63641;46.526;24.612;2024-02-23T07:37:28;96660.78;;;9.10;54.28
75146;BME280;63641;46.526;24.612;2024-02-23T07:39:55;96636.03;;;9.03;54.16
75146;BME280;63641;46.526;24.612;2024-02-23T07:42:22;96659.84;;;9.20;53.96
75146;BME280;63641;46.526;24.612;2024-02-23T07:44:48;96657.09;;;9.25;53.76
75146;BME280;63641;46.526;24.612;2024-02-23T07:47:15;96667.03;;;9.30;53.55
75146;BME280;63641;46.526;24.612;2024-02-23T07:49:42;96666.16;;;9.34;53.21
75146;BME280;63641;46.526;24.612;2024-02-23T07:52:09;96672.06;;;9.36;53.19
75146;BME280;63641;46.526;24.612;2024-02-23T07:54:35;96672.81;;;9.42;52.81
75146;BME280;63641;46.526;24.612;2024-02-23T07:57:02;96667.63;;;9.46;52.77
75146;BME280;63641;46.526;24.612;2024-02-23T07:59:31;96674.56;;;9.52;52.44
75146;BME280;63641;46.526;24.612;2024-02-23T08:01:59;96670.72;;;9.58;52.30
75146;BME280;63641;46.526;24.612;2024-02-23T08:04:26;96665.47;;;9.66;52.15
75146;BME280;63641;46.526;24.612;2024-02-23T08:06:53;96668.53;;;9.79;51.98
75146;BME280;63641;46.526;24.612;2024-02-23T08:09:20;96670.28;;;9.88;51.74
75146;BME280;63641;46.526;24.612;2024-02-23T08:11:48;96677.16;;;10.00;51.10
75146;BME280;63641;46.526;24.612;2024-02-23T08:14:16;96689.41;;;10.11;51.21
75146;BME280;63641;46.526;24.612;2024-02-23T08:16:42;96681.44;;;10.20;51.00
75146;BME280;63641;46.526;24.612;2024-02-23T08:19:09;96675.97;;;10.25;50.75
75146;BME280;63641;46.526;24.612;2024-02-23T08:21:36;96681.03;;;10.31;50.43
75146;BME280;63641;46.526;24.612;2024-02-23T08:24:03;96680.94;;;10.36;50.27
75146;BME280;63641;46.526;24.612;2024-02-23T08:26:30;96677.94;;;10.38;50.26
75146;BME280;63641;46.526;24.612;2024-02-23T08:28:57;96670.03;;;10.42;50.05
75146;BME280;63641;46.526;24.612;2024-02-23T08:31:24;96660.31;;;10.40;49.70
75146;BME280;63641;46.526;24.612;2024-02-23T08:33:51;96674.47;;;10.51;49.65
75146;BME280;63641;46.526;24.612;2024-02-23T08:36:17;96674.91;;;10.58;49.53
75146;BME280;63641;46.526;24.612;2024-02-23T08:38:44;96672.59;;;10.66;49.67
75146;BME280;63641;46.526;24.612;2024-02-23T08:41:11;96676.00;;;10.71;49.30
75146;BME280;63641;46.526;24.612;2024-02-23T08:43:38;96681.84;;;10.78;49.19
75146;BME280;63641;46.526;24.612;2024-02-23T08:46:04;96670.72;;;10.80;49.01
75146;BME280;63641;46.526;24.612;2024-02-23T08:48:35;96673.66;;;10.83;48.97
75146;BME280;63641;46.526;24.612;2024-02-23T08:51:03;96674.53;;;10.93;48.92
75146;BME280;63641;46.526;24.612;2024-02-23T08:53:29;96681.97;;;11.01;48.90
75146;BME280;63641;46.526;24.612;2024-02-23T08:55:56;96679.19;;;11.06;48.72
75146;BME280;63641;46.526;24.612;2024-02-23T08:58:24;96682.50;;;11.17;48.36
75146;BME280;63641;46.526;24.612;2024-02-23T09:00:51;96690.31;;;11.32;48.45
75146;BME280;63641;46.526;24.612;2024-02-23T09:03:17;96687.63;;;11.46;48.26
75146;BME280;63641;46.526;24.612;2024-02-23T09:05:44;96685.19;;;11.58;48.02
75146;BME280;63641;46.526;24.612;2024-02-23T09:08:13;96679.03;;;11.66;48.17
75146;BME280;63641;46.526;24.612;2024-02-23T09:10:41;96679.44;;;11.73;48.02
75146;BME280;63641;46.526;24.612;2024-02-23T09:13:08;96687.56;;;11.87;47.89
75146;BME280;63641;46.526;24.612;2024-02-23T09:15:34;96694.50;;;11.93;47.59
75146;BME280;63641;46.526;24.612;2024-02-23T09:18:01;96696.16;;;12.03;47.32
75146;BME280;63641;46.526;24.612;2024-02-23T09:20:28;96693.22;;;12.13;47.41
75146;BME280;63641;46.526;24.612;2024-02-23T09:22:57;96702.34;;;12.17;46.93
75146;BME280;63641;46.526;24.612;2024-02-23T09:25:24;96703.09;;;12.09;46.40
75146;BME280;63641;46.526;24.612;2024-02-23T09:27:51;96703.00;;;12.00;46.41
75146;BME280;63641;46.526;24.612;2024-02-23T09:30:17;96697.88;;;11.99;46.67
75146;BME280;63641;46.526;24.612;2024-02-23T09:32:44;96707.50;;;12.05;46.79
75146;BME280;63641;46.526;24.612;2024-02-23T09:35:11;96705.47;;;12.11;47.20
75146;BME280;63641;46.526;24.612;2024-02-23T09:37:38;96700.25;;;12.14;46.67
75146;BME280;63641;46.526;24.612;2024-02-23T09:40:06;96704.59;;;12.15;47.07
75146;BME280;63641;46.526;24.612;2024-02-23T09:42:33;96708.66;;;12.26;47.12
75146;BME280;63641;46.526;24.612;2024-02-23T09:45:01;96701.97;;;12.32;46.80
75146;BME280;63641;46.526;24.612;2024-02-23T09:47:28;96703.28;;;12.35;46.77
75146;BME280;63641;46.526;24.612;2024-02-23T09:49:56;96688.13;;;12.34;46.54
75146;BME280;63641;46.526;24.612;2024-02-23T09:52:23;96695.91;;;12.49;46.41
75146;BME280;63641;46.526;24.612;2024-02-23T09:54:50;96694.97;;;12.54;46.28
75146;BME280;63641;46.526;24.612;2024-02-23T09:57:17;96697.88;;;12.57;46.22
75146;BME280;63641;46.526;24.612;2024-02-23T09:59:48;96691.31;;;12.58;46.30
75146;BME280;63641;46.526;24.612;2024-02-23T10:02:17;96693.22;;;12.58;46.32
75146;BME280;63641;46.526;24.612;2024-02-23T10:04:44;96689.41;;;12.59;46.19
75146;BME280;63641;46.526;24.612;2024-02-23T10:07:14;96690.09;;;12.65;46.30
75146;BME280;63641;46.526;24.612;2024-02-23T10:09:43;96686.63;;;12.73;46.11
75146;BME280;63641;46.526;24.612;2024-02-23T10:12:09;96684.69;;;12.73;45.91
75146;BME280;63641;46.526;24.612;2024-02-23T10:14:36;96684.59;;;12.78;45.79
75146;BME280;63641;46.526;24.612;2024-02-23T10:17:03;96681.13;;;12.87;45.84
75146;BME280;63641;46.526;24.612;2024-02-23T10:19:33;96681.47;;;12.94;45.55
75146;BME280;63641;46.526;24.612;2024-02-23T10:22:00;96672.88;;;13.00;45.86
75146;BME280;63641;46.526;24.612;2024-02-23T10:24:27;96655.31;;;13.06;45.91
75146;BME280;63641;46.526;24.612;2024-02-23T10:26:54;96663.88;;;13.22;45.67
75146;BME280;63641;46.526;24.612;2024-02-23T10:29:21;96661.94;;;13.23;45.47
75146;BME280;63641;46.526;24.612;2024-02-23T10:31:51;96655.53;;;13.19;45.51
75146;BME280;63641;46.526;24.612;2024-02-23T10:34:19;96650.00;;;13.24;45.57
75146;BME280;63641;46.526;24.612;2024-02-23T10:36:50;96654.16;;;13.30;45.90
75146;BME280;63641;46.526;24.612;2024-02-23T10:39:18;96658.19;;;13.41;46.15
75146;BME280;63641;46.526;24.612;2024-02-23T10:41:56;96647.97;;;13.47;46.16
75146;BME280;63641;46.526;24.612;2024-02-23T10:44:27;96640.47;;;13.52;46.10
75146;BME280;63641;46.526;24.612;2024-02-23T10:46:55;96638.06;;;13.51;45.72
75146;BME280;63641;46.526;24.612;2024-02-23T10:49:23;96645.91;;;13.52;45.72
75146;BME280;63641;46.526;24.612;2024-02-23T10:51:54;96641.28;;;13.53;45.60
75146;BME280;63641;46.526;24.612;2024-02-23T10:54:22;96638.41;;;13.58;45.93
75146;BME280;63641;46.526;24.612;2024-02-23T10:56:50;96644.50;;;13.64;45.89
75146;BME280;63641;46.526;24.612;2024-02-23T10:59:18;96644.50;;;13.64;45.65
75146;BME280;63641;46.526;24.612;2024-02-23T11:01:50;96635.22;;;13.65;45.68
75146;BME280;63641;46.526;24.612;2024-02-23T11:04:19;96636.69;;;13.71;45.04
75146;BME280;63641;46.526;24.612;2024-02-23T11:06:50;96633.78;;;13.76;45.32
75146;BME280;63641;46.526;24.612;2024-02-23T11:09:21;96625.16;;;13.74;45.16
75146;BME280;63641;46.526;24.612;2024-02-23T11:11:55;96621.00;;;13.76;45.14
75146;BME280;63641;46.526;24.612;2024-02-23T11:14:34;96612.66;;;13.73;44.95
75146;BME280;63641;46.526;24.612;2024-02-23T11:17:03;96611.72;;;13.77;44.99
75146;BME280;63641;46.526;24.612;2024-02-23T11:19:35;96605.97;;;13.79;44.81
75146;BME280;63641;46.526;24.612;2024-02-23T11:22:03;96611.06;;;13.81;44.64
75146;BME280;63641;46.526;24.612;2024-02-23T11:24:31;96612.53;;;13.87;44.31
75146;BME280;63641;46.526;24.612;2024-02-23T11:26:59;96605.19;;;13.96;44.31
75146;BME280;63641;46.526;24.612;2024-02-23T11:29:34;96614.44;;;14.12;43.84
75146;BME280;63641;46.526;24.612;2024-02-23T11:32:03;96611.69;;;14.21;43.49
75146;BME280;63641;46.526;24.612;2024-02-23T11:34:31;96609.44;;;14.32;43.27
75146;BME280;63641;46.526;24.612;2024-02-23T11:36:58;96612.19;;;14.40;42.99
75146;BME280;63641;46.526;24.612;2024-02-23T11:39:36;96613.47;;;14.52;42.37
75146;BME280;63641;46.526;24.612;2024-02-23T11:42:04;96611.03;;;14.59;42.21
75146;BME280;63641;46.526;24.612;2024-02-23T11:44:32;96617.09;;;14.64;41.66
75146;BME280;63641;46.526;24.612;2024-02-23T11:46:59;96606.69;;;14.66;41.78
75146;BME280;63641;46.526;24.612;2024-02-23T11:49:30;96603.28;;;14.78;41.81
75146;BME280;63641;46.526;24.612;2024-02-23T11:51:57;96601.84;;;14.81;41.46
75146;BME280;63641;46.526;24.612;2024-02-23T11:54:24;96598.44;;;14.84;41.47
75146;BME280;63641;46.526;24.612;2024-02-23T11:56:51;96594.94;;;14.83;41.17
75146;BME280;63641;46.526;24.612;2024-02-23T11:59:20;96602.78;;;14.85;41.04
75146;BME280;63641;46.526;24.612;2024-02-23T12:01:47;96609.34;;;14.84;40.68
75146;BME280;63641;46.526;24.612;2024-02-23T12:04:16;96603.44;;;14.82;40.35
75146;BME280;63641;46.526;24.612;2024-02-23T12:06:43;96599.13;;;14.81;40.20
75146;BME280;63641;46.526;24.612;2024-02-23T12:09:10;96590.47;;;14.79;40.08
75146;BME280;63641;46.526;24.612;2024-02-23T12:11:39;96601.38;;;14.79;39.77
75146;BME280;63641;46.526;24.612;2024-02-23T12:14:06;96593.34;;;14.82;39.74
75146;BME280;63641;46.526;24.612;2024-02-23T12:16:36;96601.69;;;14.77;39.33
75146;BME280;63641;46.526;24.612;2024-02-23T12:19:03;96603.63;;;14.77;39.43
75146;BME280;63641;46.526;24.612;2024-02-23T12:21:30;96607.44;;;14.76;39.59
75146;BME280;63641;46.526;24.612;2024-02-23T12:23:57;96594.03;;;14.70;39.81
75146;BME280;63641;46.526;24.612;2024-02-23T12:26:23;96597.88;;;14.69;39.86
75146;BME280;63641;46.526;24.612;2024-02-23T12:28:50;96599.00;;;14.68;40.04
75146;BME280;63641;46.526;24.612;2024-02-23T12:31:23;96586.69;;;14.62;39.88
75146;BME280;63641;46.526;24.612;2024-02-23T12:33:51;96589.75;;;14.52;40.31
75146;BME280;63641;46.526;24.612;2024-02-23T12:36:18;96581.59;;;14.43;40.24
75146;BME280;63641;46.526;24.612;2024-02-23T12:38:44;96587.84;;;14.35;40.63
75146;BME280;63641;46.526;24.612;2024-02-23T12:41:12;96588.34;;;14.29;40.64
75146;BME280;63641;46.526;24.612;2024-02-23T12:43:39;96587.06;;;14.26;40.66
75146;BME280;63641;46.526;24.612;2024-02-23T12:46:08;96582.09;;;14.19;40.71
75146;BME280;63641;46.526;24.612;2024-02-23T12:48:35;96594.59;;;14.20;40.63
75146;BME280;63641;46.526;24.612;2024-02-23T12:51:03;96583.88;;;14.15;40.76
75146;BME280;63641;46.526;24.612;2024-02-23T12:53:34;96585.16;;;14.18;40.73
75146;BME280;63641;46.526;24.612;2024-02-23T12:56:04;96585.00;;;14.14;40.74
75146;BME280;63641;46.526;24.612;2024-02-23T12:58:31;96595.38;;;14.21;40.61
75146;BME280;63641;46.526;24.612;2024-02-23T13:00:59;96585.31;;;14.21;40.47